Weather

Frazier Lake Airpark (1C9) NOTAMS
Aviation Weather
HOLLISTER MUNI, CA
Metar
KCVH 201955Z AUTO 28012KT 10SM CLR 20/12 A2994 RMK A01

19:55 UTC

Wind: 280° 12kt

Visibility: 10 SM

Sky:

Temp: 20 deg C / 68 deg F

Dewpoint: 12 deg C / 53.6 deg F

Pressure: 29.94 inHg

Pirep (1)
MRY UA /OV MRY070003/TM 1832/FL020/TP G280/SK OVC011-TOP020/RM DURC

Available data for KSJC from the past 2 hours
SAN JOSE, CA
Metar
KSJC 201953Z 03004KT 7SM FEW026 SCT100 23/12 A2990 RMK AO2 SLP124 FU FEW026 T02330117

19:53 UTC

Wind: 30° 4kt

Visibility: 7 SM

Sky: FEW 2600 ft

Temp: 23 deg C / 73.4 deg F

Dewpoint: 12 deg C / 53.6 deg F

Pressure: 29.9 inHg

TAF
KSJC 201731Z 2018/2118 VRB06KT 6SM HZ FEW012 FEW025 FM202100 30010KT P6SM FEW025 FM210600 VRB05KT P6SM FEW012 FM211000 15008KT 6SM HZ BKN011 FM211700 VRB04KT 6SM HZ FEW012
Pirep (1)
MRY UA /OV MRY070003/TM 1832/FL020/TP G280/SK OVC011-TOP020/RM DURC
 

Latitude: -121.4626 Longitude: 36.9528 Elevation: 154

Extended Forecast Summary for Frazier Lake Airpark

Frazier Lake Airpark